Terminal Aerodrome Forecast
Issued by NWS Melbourne, FL

Home | Current Version | Previous Version | Text Only | Print | Product List | Glossary On
Versions: 1 2 3 4 5 6 7 8 9 10 11 12 13 14 15 16 17
000
FTUS42 KMLB 221800 AAA
TAFDAB
TAF AMD
KDAB 221804Z 2218/2318 06008KT P6SM VCTS SCT035CB SCT110 SCT250
      TEMPO 2218/2219 TSRA SCT020CB BKN060
     FM230000 15004KT P6SM FEW020 SCT100 OVC250
     FM230400 19003KT P6SM FEW020 SCT250
     FM231400 22007KT P6SM SCT020 SCT050=

USA.gov is the U.S. government's official web portal to all federal, state and local government web resources and services.